KEGI/EGI METAR and TAF weather

Enter ICAO airport designator
Station Type Date Time Source
KEGI METAR 2019/04/18 18:56 UTC NOAA

KEGI 181856Z AUTO 16013G21KT 10SM FEW032 SCT140 SCT190 27/18 A2988 RMK AO2 SLP118 T02680178 $


Station Type Date Time Source
KEGI Decoded METAR 2019/04/18 18:56 UTC NOAA

Duke Field / Eglin Auxiliary, FL, United States (KEGI) 30-39N 086-31W
Apr 18, 2019 - 02:56 PM EDT / 2019.04.18 1856 UTC
Wind: from the SSE (160 degrees) at 15 MPH (13 KT) gusting to 24 MPH (21 KT):0
Visibility: 10 mile(s):0
Sky conditions: partly cloudy
Temperature: 80.2 F (26.8 C)
Dew Point: 64.0 F (17.8 C)
Relative Humidity: 57%
Pressure (altimeter): 29.88 in. Hg (1011 hPa)
ob: KEGI 181856Z AUTO 16013G21KT 10SM FEW032 SCT140 SCT190 27/18 A2988 RMK AO2 SLP118 T02680178
cycle: 19

Station Type Date Time Source
KEGI TAF 2019/04/18 09:02 UTC NOAA

TAF KEGI 180900Z 1809/1915 16009KT 9999 SCT250 QNH2988INS
BECMG 1814/1815 17012G18KT 9999 FEW020 SCT150 BKN250 QNH2990INS
BECMG 1817/1818 18015G25KT 9999 SCT020 SCT150 BKN250 QNH2989INS
BECMG 1823/1824 18015G25KT 9999 BKN015 BKN150 OVC250 QNH2981INS
BECMG 1902/1903 17015G25KT 9000 -SHRA VCTS BKN009 BKN015CB OVC200 QNH2974INS
TEMPO 1904/1909 18025G40KT 1600 +TSRA OVC005CB
BECMG 1908/1909 22015G25KT 9000 -RA BKN005 OVC015 QNH2963INS
BECMG 1914/1915 25012G18KT 9999 NSW BKN010 OVC020 QNH2970INS TX26/1821Z TN18/1812Z LAST NO
AMDS AFT 1809 NEXT 1813

Example: see airport list